Latest Coastal Weather Observations for Bairnsdale

IDV60701

Issued at 6:25 am EST Thursday 24 April 2014 (issued every 10 minutes, with the page automatically refreshed every 10 minutes)

About coastal observations | Map of coastal stations | Coastal observations for VIC | Marine services | Other Formats
Station Details ID: 085279 Name: BAIRNSDALE AIRPORT Lat: -37.88 Lon: 147.57 Height: 49.4 m
Data from the previous 72 hours. | See also: Recent months at Bairnsdale
Date/Time
EST
Temp

°C
Wind Pressure Rain
since 9am
mm
Weather Cloud Vis
km
Sea
Height
m
Swell
Dir
 
Speed
knots
Gust
knots
hPa Trend Height
m
Period
s
Dir
24/06:00am 7.7 NNW 7 8 1010.3 - 0.2 - - 9 - - - -
24/05:30am 8.6 WNW 7 9 1010.4 - 0.2 - - 10 - - - -
24/05:15am 8.3 WNW 7 8 1010.4 - 0.2 - - 6 - - - -
24/05:00am 7.9 NW 7 9 1010.3 - 0.2 - - 3 - - - -
24/04:30am 7.3 NW 5 7 1010.1 - 0.0 - - 0.3 - - - -
24/04:00am 8.9 NW 6 7 1010.2 - 0.0 - - 0.7 - - - -
24/03:34am 9.4 NW 5 6 1010.1 - 0.0 - - 5 - - - -
24/03:30am 9.6 NW 5 7 1010.1 - 0.0 - - 6 - - - -
24/03:21am 9.5 NW 6 7 1010.1 - 0.0 - - 8 - - - -
24/03:00am 8.2 WNW 5 6 1010.2 - 0.0 - Mostly clear 0.4 - - - -
24/02:59am 8.2 WNW 4 6 1010.3 - 0.0 - Partly cloudy 0.5 - - - -
24/02:30am 8.8 NNW 4 5 1010.6 - 0.0 - Cloudy 0.2 - - - -
24/02:00am 8.6 NW 4 5 1011.0 - 0.0 - Partly cloudy 0.3 - - - -
24/01:37am 9.6 NW 4 6 1011.2 - 0.0 - - 5 - - - -
24/01:32am 9.6 NW 4 6 1011.2 - 0.0 - - 8 - - - -
24/01:30am 9.5 NW 4 6 1011.3 - 0.0 - - 8 - - - -
24/01:10am 9.5 NW 4 5 1011.4 - 0.0 - - 5 - - - -
24/01:00am 9.6 NW 2 4 1011.4 - 0.0 - - 10 - - - -
24/12:51am 10.0 NNW 2 4 1011.6 - 0.0 - - 10 - - - -
24/12:30am 9.6 W 4 5 1011.6 - 0.0 - - 5 - - - -
24/12:27am 9.5 W 4 5 1011.6 - 0.0 - - 5 - - - -
24/12:00am 10.5 WNW 4 6 1011.7 - 0.0 - - 7 - - - -
 
Date/Time
EST
Temp

°C
Wind Pressure Rain
since 9am
mm
Weather Cloud Vis
km
Sea
Height
m
Swell
Dir
 
Speed
knots
Gust
knots
hPa Trend Height
m
Period
s
Dir
23/11:30pm 9.7 NW 4 6 1012.1 - 0.0 - - 0.6 - - - -
23/11:00pm 11.1 N 5 6 1012.3 - 0.0 - - 2 - - - -
23/10:47pm 11.2 NW 5 6 1012.5 - 0.0 - - 5 - - - -
23/10:40pm 11.1 NW 6 7 1012.7 - 0.0 - - 8 - - - -
23/10:30pm 11.3 NW 7 8 1012.9 - 0.0 - - 5 - - - -
23/10:00pm 10.5 NW 5 6 1013.1 - 0.0 - - 0.3 - - - -
23/09:30pm 11.5 NNW 5 5 1013.3 - 0.0 - - 0.5 - - - -
23/09:00pm 10.9 NW 5 6 1013.4 - 0.0 - - 2 - - - -
23/08:46pm 11.8 N 4 5 1013.5 - 0.0 - - 5 - - - -
23/08:30pm 12.5 N 4 4 1013.7 - 0.0 - - 6 - - - -
23/08:00pm 12.7 NE 4 4 1013.7 - 0.0 - - 10 - - - -
23/07:30pm 12.3 N 4 4 1013.8 - 0.0 - - 10 - - - -
23/07:00pm 13.1 NNE 3 4 1013.7 - 0.0 - - 10 - - - -
23/06:30pm 14.2 NNE 3 4 1013.6 - 0.0 - - 10 - - - -
23/06:00pm 14.6 NE 4 4 1013.5 - 0.0 - - 10 - - - -
23/05:30pm 15.2 ENE 4 5 1013.4 - 0.0 - Partly cloudy 10 - - - -
23/05:00pm 16.0 E 4 5 1013.3 - 0.0 - Partly cloudy 10 - - - -
23/04:30pm 16.8 ESE 4 5 1013.3 - 0.0 - Partly cloudy 10 - - - -
23/04:00pm 16.9 SE 5 6 1013.4 - 0.0 - Cloudy 10 - - - -
23/03:30pm 16.9 SE 7 8 1013.2 - 0.0 - Partly cloudy 10 - - - -
23/03:00pm 17.2 SSE 8 10 1013.2 - 0.0 - Mostly cloudy 10 - - - -
23/02:30pm 17.6 ESE 7 11 1013.0 - 0.0 - Partly cloudy 10 - - - -
23/02:00pm 17.9 SE 6 10 1013.1 - 0.0 - Partly cloudy 10 - - - -
23/01:30pm 18.2 S 5 7 1013.2 - 0.0 - Partly cloudy 10 - - - -
23/01:00pm 18.1 S 3 5 1013.7 - 0.0 - Partly cloudy 10 - - - -
23/12:30pm 18.1 SE 4 5 1014.0 - 0.0 - Partly cloudy 10 - - - -
23/12:00pm 17.6 ENE 5 6 1014.7 - 0.0 - Cloudy 10 - - - -
23/11:30am 17.5 E 4 6 1015.3 - 0.0 - Partly cloudy 10 - - - -
23/11:00am 16.0 ENE 5 8 1015.6 - 0.0 - Partly cloudy 10 - - - -
23/10:30am 15.4 NNE 4 5 1016.1 - 0.0 - Partly cloudy 10 - - - -
23/10:00am 15.4 N 3 5 1016.3 - 0.0 - Cloudy 10 - - - -
23/09:37am 14.9 NNW 4 5 1016.3 - 0.0 - Partly cloudy 10 - - - -
23/09:30am 14.9 NNW 4 5 1016.3 - 0.0 - Partly cloudy 10 - - - -
23/09:04am 14.0 N 3 5 1016.5 - 0.0 - Partly cloudy 10 - - - -
23/09:00am 14.0 NNW 3 4 1016.5 - 2.4 - Cloudy 10 - - - -
23/08:46am 13.8 NNW 4 4 1016.6 - 2.4 - Partly cloudy 10 - - - -
23/08:30am 13.5 NW 4 5 1016.8 - 2.4 - Cloudy 10 - - - -
23/08:00am 13.4 NW 5 6 1016.6 - 2.4 - Cloudy 7 - - - -
23/07:30am 13.3 NW 4 4 1016.5 - 2.4 - Cloudy 10 - - - -
23/07:00am 13.3 WNW 2 4 1016.3 - 2.4 - Cloudy 10 - - - -
23/06:30am 13.3 WSW 1 5 1016.4 - 2.4 - Cloudy 10 - - - -
23/06:14am 13.3 CALM 0 0 1016.3 - 2.4 - Partly cloudy 10 - - - -
23/06:00am 13.3 CALM 0 0 1016.3 - 2.4 - Mostly cloudy 10 - - - -
23/05:30am 13.2 CALM 0 0 1016.5 - 2.4 - Cloudy 10 - - - -
23/05:00am 13.3 WSW 3 4 1016.5 - 2.4 - Cloudy 10 - - - -
23/04:30am 13.3 SW 3 4 1016.6 - 2.4 - Partly cloudy 10 - - - -
23/04:25am 13.3 SW 3 4 1016.5 - 2.4 - Partly cloudy 10 - - - -
23/04:00am 13.5 CALM 0 0 1016.6 - 2.4 - Partly cloudy 10 - - - -
23/03:50am 13.6 CALM 0 0 1016.5 - 2.4 - Partly cloudy 10 - - - -
23/03:30am 13.5 CALM 0 0 1016.6 - 2.4 - Partly cloudy 10 - - - -
23/03:00am 13.5 CALM 0 0 1016.6 - 2.4 - Cloudy 10 - - - -
23/02:59am 13.6 CALM 0 0 1016.7 - 2.4 - Partly cloudy 10 - - - -
23/02:34am 13.7 CALM 0 0 1016.9 - 2.4 - Partly cloudy 10 - - - -
23/02:30am 13.7 CALM 0 0 1016.9 - 2.4 - Partly cloudy 10 - - - -
23/02:00am 13.6 WSW 3 4 1017.1 - 2.4 - Cloudy 10 - - - -
23/01:30am 13.6 W 3 4 1017.2 - 2.4 - Cloudy 10 - - - -
23/01:00am 13.7 W 4 5 1017.4 - 2.4 - Cloudy 10 - - - -
23/12:30am 13.7 WNW 4 5 1017.6 - 2.4 - Cloudy 10 - - - -
23/12:00am 13.6 NW 4 5 1017.7 - 2.4 - Mostly cloudy 10 - - - -
 
Date/Time
EST
Temp

°C
Wind Pressure Rain
since 9am
mm
Weather Cloud Vis
km
Sea
Height
m
Swell
Dir
 
Speed
knots
Gust
knots
hPa Trend Height
m
Period
s
Dir
22/11:30pm 13.7 WNW 4 5 1017.7 - 2.4 - Partly cloudy 10 - - - -
22/11:00pm 13.8 NW 4 6 1017.9 - 2.4 - Cloudy 10 - - - -
22/10:30pm 13.8 NW 4 5 1017.8 - 2.4 - Cloudy 10 - - - -
22/10:00pm 13.8 WNW 4 4 1017.9 - 2.2 - Cloudy 10 - - - -
22/09:30pm 13.9 SSW 3 5 1017.5 - 2.2 - Partly cloudy 10 - - - -
22/09:08pm 14.1 SW 5 8 1017.6 - 2.2 - Partly cloudy 10 - - - -
22/09:00pm 14.2 WSW 5 7 1017.6 - 2.2 - Cloudy 10 - - - -
22/08:38pm 14.2 W 5 8 1017.2 - 2.2 - Partly cloudy 10 - - - -
22/08:30pm 14.2 W 5 7 1017.1 - 2.2 - Partly cloudy 10 - - - -
22/08:00pm 14.2 W 5 6 1016.9 - 2.2 - Partly cloudy 10 - - - -
22/07:30pm 14.4 WSW 7 11 1016.6 - 2.2 - Cloudy 10 - - - -
22/07:00pm 14.5 SW 8 9 1016.0 - 2.0 - Partly cloudy 10 - - - -
22/06:43pm 14.5 SW 10 13 1015.9 - 1.8 - Partly cloudy 10 - - - -
22/06:31pm 14.7 SW 11 13 1015.7 - 1.6 - Partly cloudy 5 - - - -
22/06:30pm 14.7 SW 11 15 1015.6 - 1.4 - Partly cloudy 6 - - - -
22/06:00pm 15.9 SW 10 13 1015.4 - 0.0 - Cloudy 10 - - - -
22/05:30pm 16.2 SW 10 13 1014.8 - 0.0 - Partly cloudy 10 - - - -
22/05:00pm 17.2 SW 10 13 1014.2 - 0.0 - Partly cloudy 10 - - - -
22/04:30pm 17.7 SW 9 11 1013.8 - 0.0 - Partly cloudy 10 - - - -
22/04:00pm 18.3 SSW 10 12 1013.7 - 0.0 - Partly cloudy 10 - - - -
22/03:30pm 19.5 SSW 8 11 1013.6 - 0.0 - Partly cloudy 10 - - - -
22/03:00pm 20.9 CALM 0 2 1013.2 - 0.0 - Partly cloudy 10 - - - -
22/02:30pm 20.2 N 4 6 1013.2 - 0.0 - Partly cloudy 10 - - - -
22/02:00pm 21.7 SE 1 4 1013.2 - 0.0 - Partly cloudy 10 - - - -
22/01:30pm 19.6 S 3 4 1013.5 - 0.0 - Cloudy 10 - - - -
22/01:00pm 19.0 SSW 7 9 1014.1 - 0.0 - Cloudy 10 - - - -
22/12:30pm 19.2 SW 8 10 1014.7 - 0.0 - Partly cloudy 10 - - - -
22/12:00pm 20.2 W 6 8 1014.9 - 0.0 - Mostly cloudy 10 - - - -
22/11:30am 20.8 W 6 7 1015.1 - 0.0 - Partly cloudy 10 - - - -
22/11:00am 20.8 WSW 7 12 1015.6 - 0.0 - Partly cloudy 10 - - - -
22/10:30am 19.9 W 8 11 1015.9 - 0.0 - Partly cloudy 10 - - - -
22/10:00am 19.7 W 6 9 1015.8 - 0.0 - Partly cloudy 10 - - - -
22/09:30am 19.0 WNW 7 9 1015.9 - 0.0 - Partly cloudy 10 - - - -
22/09:00am 18.7 WNW 10 15 1015.8 - 0.2 - Mostly cloudy 10 - - - -
22/08:30am 18.5 W 10 14 1015.8 - 0.2 - Partly cloudy 10 - - - -
22/08:00am 18.7 W 12 17 1015.5 - 0.2 - Partly cloudy 10 - - - -
22/07:30am 18.6 WNW 10 16 1014.5 - 0.2 - Partly cloudy 10 - - - -
22/07:00am 18.5 WNW 11 15 1014.0 - 0.2 - - 10 - - - -
22/06:30am 18.7 NW 11 16 1013.5 - 0.2 - - 10 - - - -
22/06:00am 18.9 NW 12 16 1012.8 - 0.2 - - 10 - - - -
22/05:30am 18.6 NNW 12 16 1012.9 - 0.2 - - 10 - - - -
22/05:00am 18.7 NNW 12 17 1012.7 - 0.2 - Partly cloudy 10 - - - -
22/04:30am 18.6 NNW 11 13 1012.8 - 0.2 - Cloudy 10 - - - -
22/04:00am 18.4 NNW 7 11 1012.9 - 0.2 - Cloudy 10 - - - -
22/03:30am 18.7 NW 10 13 1012.8 - 0.2 - Partly cloudy 10 - - - -
22/03:00am 17.8 NW 8 11 1012.7 - 0.2 - Mostly clear 10 - - - -
22/02:30am 17.3 NNW 4 7 1013.3 - 0.2 - Partly cloudy 10 - - - -
22/02:00am 18.5 NW 10 15 1013.4 - 0.2 - Partly cloudy 10 - - - -
22/01:30am 17.6 NNW 7 10 1013.8 - 0.2 - Partly cloudy 10 - - - -
22/01:00am 16.6 NNW 6 9 1014.0 - 0.2 - Cloudy 10 - - - -
22/12:30am 17.3 NW 9 13 1014.2 - 0.2 - Partly cloudy 10 - - - -
22/12:00am 17.0 NW 10 15 1014.3 - 0.2 - - 10 - - - -
 
Date/Time
EST
Temp

°C
Wind Pressure Rain
since 9am
mm
Weather Cloud Vis
km
Sea
Height
m
Swell
Dir
 
Speed
knots
Gust
knots
hPa Trend Height
m
Period
s
Dir
21/11:30pm 16.3 NNW 10 15 1014.5 - 0.2 - - 10 - - - -
21/11:00pm 15.1 N 7 8 1014.8 - 0.2 - - 10 - - - -
21/10:30pm 14.1 N 7 9 1014.7 - 0.2 - - 10 - - - -
21/10:00pm 12.7 N 6 7 1014.9 - 0.2 - - 10 - - - -
21/09:30pm 13.2 NNE 6 7 1015.1 - 0.2 - - 10 - - - -
21/09:00pm 14.0 N 6 8 1015.3 - 0.2 - - 10 - - - -
21/08:30pm 13.5 NNE 5 6 1015.3 - 0.2 - - 10 - - - -
21/08:00pm 13.5 NE 6 7 1015.4 - 0.2 - - 10 - - - -
21/07:30pm 13.7 NE 5 6 1015.7 - 0.2 - - 10 - - - -
21/07:00pm 14.5 NE 6 7 1015.9 - 0.2 - - 10 - - - -
21/06:30pm 15.0 ENE 6 7 1015.9 - 0.2 - - 10 - - - -
21/06:00pm 15.8 ENE 7 8 1015.8 - 0.2 - - 10 - - - -
21/05:30pm 16.2 E 6 7 1015.8 - 0.2 - - 10 - - - -
21/05:00pm 17.2 E 5 6 1015.8 - 0.2 - - 10 - - - -
21/04:30pm 17.9 ENE 5 6 1015.7 - 0.2 - - 10 - - - -
21/04:00pm 18.8 ENE 6 7 1015.4 - 0.0 - - 10 - - - -
21/03:30pm 19.4 NE 7 9 1015.3 - 0.0 - - 10 - - - -
21/03:00pm 20.4 NE 7 10 1015.7 - 0.0 - - 10 - - - -
21/02:30pm 20.0 NE 8 11 1015.9 - 0.0 - - 10 - - - -
21/02:00pm 20.0 NNE 9 11 1016.3 - 0.0 - - 10 - - - -
21/01:30pm 20.3 NE 8 10 1016.8 - 0.0 - - 10 - - - -
21/01:00pm 19.1 N 5 7 1017.5 - 0.0 - - 10 - - - -
21/12:30pm 18.9 NNW 4 5 1018.2 - 0.0 - Partly cloudy 10 - - - -
21/12:00pm 17.9 N 4 7 1018.5 - 0.0 - - 10 - - - -
21/11:30am 17.4 NNE 4 5 1018.9 - 0.0 - - 10 - - - -
21/11:00am 16.5 NNE 5 6 1019.2 - 0.0 - - 10 - - - -
21/10:30am 15.7 NNE 4 6 1019.4 - 0.0 - - 10 - - - -
21/10:00am 14.1 NNE 5 6 1019.6 - 0.0 - - 10 - - - -
21/09:30am 13.5 N 4 5 1020.1 - 0.0 - - 10 - - - -
21/09:00am 12.3 NNE 5 7 1019.8 - 0.0 - - 10 - - - -
21/08:30am 11.1 N 4 5 1020.2 - 0.0 - - 10 - - - -
21/08:00am 9.9 N 5 6 1019.9 - 0.0 - - 10 - - - -
21/07:30am 8.5 NNE 6 7 1019.7 - 0.0 - - 10 - - - -
21/07:00am 7.4 N 4 4 1019.5 - 0.0 - - 10 - - - -
21/06:30am 7.4 N 6 7 1019.3 - 0.0 - - 10 - - - -

Other Formats:

Comma delimited format used in spreadsheet applications
http://www.bom.gov.au/fwo/IDV60701/IDV60701.94912.axf

JavaScript Object Notation format (JSON) in row-major order
http://www.bom.gov.au/fwo/IDV60701/IDV60701.94912.json